Time;durP1;ratioP1;P1;durP2;ratioP2;P2;SDS_P1;SDS_P2;PMS_P1;PMS_P2;Temp;Humidity;BMP_temperature;BMP_pressure;BME280_temperature;BME280_humidity;BME280_pressure;Samples;Min_cycle;Max_cycle;Signal;HPM_P1;HPM_P2
2022/01/08 00:00:15;;;;;;;10.07;1.95;;;;;;;2.21;74.55;101121.13;5055435;28;20044;-77
2022/01/08 00:02:41;;;;;;;9.50;1.90;;;;;;;2.26;74.42;101122.59;5054326;28;20037;-79
2022/01/08 00:05:08;;;;;;;10.20;1.73;;;;;;;2.25;74.88;101122.69;5053098;28;20025;-79
2022/01/08 00:07:33;;;;;;;8.80;1.90;;;;;;;2.23;74.47;101120.13;5054571;28;20048;-78
2022/01/08 00:09:58;;;;;;;7.85;1.90;;;;;;;2.31;73.49;101122.38;5054633;28;20048;-79
2022/01/08 00:12:24;;;;;;;20.90;2.90;;;;;;;2.39;72.79;101132.47;5036491;28;20025;-78
2022/01/08 00:14:50;;;;;;;6.57;1.52;;;;;;;2.42;71.85;101137.59;5053174;28;20101;-78
2022/01/08 00:17:15;;;;;;;10.30;1.90;;;;;;;2.39;71.82;101130.72;5054346;28;20434;-79
2022/01/08 00:19:40;;;;;;;12.05;2.10;;;;;;;2.37;71.90;101134.34;5054228;28;20080;-79
2022/01/08 00:22:06;;;;;;;10.35;1.88;;;;;;;2.35;72.12;101137.03;5054286;28;20073;-80
2022/01/08 00:24:32;;;;;;;7.50;2.88;;;;;;;2.38;72.11;101136.88;5054228;28;20056;-78
2022/01/08 00:26:57;;;;;;;8.25;1.38;;;;;;;2.38;72.77;101136.88;5054672;28;20047;-79
2022/01/08 00:29:23;;;;;;;8.35;1.63;;;;;;;2.31;73.71;101145.16;5053804;28;20423;-78
2022/01/08 00:31:48;;;;;;;6.50;1.60;;;;;;;2.31;73.72;101137.28;5052473;28;20374;-78
2022/01/08 00:34:13;;;;;;;6.68;1.60;;;;;;;2.35;73.61;101133.56;5054002;28;20116;-77
2022/01/08 00:36:39;;;;;;;4.18;1.48;;;;;;;2.39;73.83;101133.34;5053573;28;20040;-79
2022/01/08 00:39:04;;;;;;;6.18;1.45;;;;;;;2.37;73.71;101137.81;5053640;28;20051;-82
2022/01/08 00:41:30;;;;;;;7.75;1.40;;;;;;;2.24;74.18;101134.09;5054247;28;20079;-79
2022/01/08 00:43:56;;;;;;;8.60;2.10;;;;;;;2.05;74.80;101137.66;5053523;28;20056;-79
2022/01/08 00:46:22;;;;;;;5.72;1.60;;;;;;;1.83;75.23;101140.50;5053443;28;20032;-78
2022/01/08 00:48:47;;;;;;;8.98;1.55;;;;;;;1.62;76.85;101125.81;5035951;28;20447;-78
2022/01/08 00:51:13;;;;;;;5.95;1.40;;;;;;;1.53;77.97;101129.75;5053608;28;20461;-79
2022/01/08 00:53:38;;;;;;;13.52;1.77;;;;;;;1.46;78.57;101134.41;5036040;28;20455;-78
2022/01/08 00:56:04;;;;;;;12.07;1.67;;;;;;;1.38;79.41;101145.25;5053730;28;20476;-78
2022/01/08 00:58:30;;;;;;;9.38;1.60;;;;;;;1.38;79.80;101141.81;5053584;28;20025;-78
2022/01/08 01:00:56;;;;;;;8.27;1.50;;;;;;;1.33;79.86;101144.66;5052295;28;20086;-78
2022/01/08 01:03:21;;;;;;;7.10;1.92;;;;;;;1.37;80.80;101151.44;5053480;28;20111;-78
2022/01/08 01:05:46;;;;;;;12.38;2.30;;;;;;;1.50;80.85;101148.25;5053736;28;20133;-78
2022/01/08 01:08:12;;;;;;;13.88;2.25;;;;;;;1.65;80.35;101149.28;5051781;28;20025;-78
2022/01/08 01:10:39;;;;;;;5.65;1.92;;;;;;;1.80;79.66;101158.19;5052807;28;20056;-78
2022/01/08 01:13:04;;;;;;;10.25;2.60;;;;;;;2.02;78.08;101148.31;5053525;28;20033;-78
2022/01/08 01:15:30;;;;;;;10.15;2.05;;;;;;;2.11;77.72;101139.13;5053421;28;20029;-79
2022/01/08 01:17:55;;;;;;;6.47;1.67;;;;;;;2.18;76.98;101150.16;5052725;28;20033;-78
2022/01/08 01:20:21;;;;;;;10.07;1.95;;;;;;;2.24;77.11;101137.59;5052078;28;20116;-79
2022/01/08 01:23:10;;;;;;;12.30;2.20;;;;;;;2.26;77.16;101146.22;5053576;28;20158;-79
2022/01/08 01:26:01;;;;;;;8.88;2.00;;;;;;;2.25;76.77;101141.06;5052626;28;20032;-79
2022/01/08 01:28:39;;;;;;;11.07;2.30;;;;;;;2.17;77.47;101143.25;5053289;28;20056;-79
2022/01/08 01:47:32;;;;;;;8.90;1.90;;;;;;;2.26;78.15;101166.41;5053515;28;20048;-80
2022/01/08 01:49:58;;;;;;;5.60;1.70;;;;;;;2.36;77.70;101170.25;5053733;28;20025;-79
2022/01/08 01:52:23;;;;;;;15.38;2.20;;;;;;;2.47;77.64;101173.16;5053466;28;20035;-79
2022/01/08 01:54:49;;;;;;;6.63;1.70;;;;;;;2.57;77.31;101181.44;5052882;28;20075;-79
2022/01/08 01:57:16;;;;;;;8.07;1.75;;;;;;;2.64;76.88;101184.59;5053054;28;20484;-80
2022/01/08 01:59:41;;;;;;;8.73;2.40;;;;;;;2.72;77.22;101179.81;5053026;28;20033;-79
2022/01/08 02:02:07;;;;;;;9.07;2.33;;;;;;;2.81;77.02;101181.09;5053125;28;20370;-79
2022/01/08 02:04:32;;;;;;;12.43;2.15;;;;;;;2.86;77.10;101184.31;5052993;28;20025;-79
2022/01/08 02:06:58;;;;;;;9.50;2.28;;;;;;;2.89;76.71;101185.94;5053087;28;20028;-79
2022/01/08 02:09:24;;;;;;;15.45;2.92;;;;;;;2.91;76.50;101178.81;5052728;28;20128;-79
2022/01/08 02:11:56;;;;;;;9.68;1.90;;;;;;;2.87;75.64;101180.78;5053327;28;20041;-79
2022/01/08 02:14:22;;;;;;;7.95;1.90;;;;;;;2.79;75.78;101175.06;5052658;28;20039;-79
2022/01/08 02:16:48;;;;;;;9.10;1.80;;;;;;;2.71;76.03;101185.13;5051523;28;20389;-79
2022/01/08 02:19:13;;;;;;;8.95;1.98;;;;;;;2.68;75.86;101187.94;5052857;28;20441;-78
2022/01/08 02:21:44;;;;;;;8.07;2.17;;;;;;;2.59;75.70;101182.19;5051257;28;20025;-78
2022/01/08 02:24:09;;;;;;;4.82;1.58;;;;;;;2.52;75.83;101178.19;5053550;28;20473;-79
2022/01/08 02:26:35;;;;;;;7.35;1.77;;;;;;;2.46;76.26;101182.00;5052735;28;20033;-79
2022/01/08 02:29:00;;;;;;;8.10;2.25;;;;;;;2.44;76.26;101173.34;5056368;28;20385;-79
2022/01/08 02:31:27;;;;;;;10.98;2.03;;;;;;;2.42;76.28;101167.31;5056196;28;20070;-80
2022/01/08 02:33:53;;;;;;;8.90;1.50;;;;;;;2.36;76.96;101167.63;5055347;28;20490;-80
2022/01/08 02:36:19;;;;;;;9.57;2.00;;;;;;;2.37;76.81;101160.59;5056258;28;20072;-79
2022/01/08 02:38:45;;;;;;;10.85;1.65;;;;;;;2.35;76.99;101160.69;5055888;28;20057;-79
2022/01/08 02:41:11;;;;;;;18.48;2.35;;;;;;;2.35;77.38;101163.31;5055124;28;20033;-79
2022/01/08 02:43:41;;;;;;;14.02;2.40;;;;;;;2.28;77.82;101168.03;5056154;28;20028;-80
2022/01/08 02:46:07;;;;;;;11.23;1.80;;;;;;;2.28;77.58;101172.41;5055005;28;20037;-79
2022/01/08 02:48:32;;;;;;;6.55;1.77;;;;;;;2.28;78.04;101162.78;5055953;28;20519;-79
2022/01/08 02:50:58;;;;;;;7.50;1.70;;;;;;;2.30;77.84;101167.97;5056132;28;20040;-79
2022/01/08 02:53:23;;;;;;;7.78;2.00;;;;;;;2.28;78.00;101159.28;5055948;28;20370;-81
2022/01/08 02:55:49;;;;;;;10.27;1.90;;;;;;;2.25;78.24;101160.28;5055925;28;20029;-79
2022/01/08 02:58:15;;;;;;;5.68;1.45;;;;;;;2.27;78.38;101165.47;5056060;28;20492;-79
2022/01/08 03:00:40;;;;;;;7.03;1.52;;;;;;;2.28;78.14;101160.16;5054483;28;20037;-79
2022/01/08 03:03:05;;;;;;;11.32;1.92;;;;;;;2.27;78.30;101157.59;5055635;28;20061;-79
2022/01/08 03:05:31;;;;;;;9.57;1.80;;;;;;;2.25;78.42;101155.03;5055879;28;20036;-79
2022/01/08 03:07:56;;;;;;;12.70;1.90;;;;;;;2.31;78.16;101153.88;5055754;28;20033;-79
2022/01/08 03:10:21;;;;;;;6.28;2.00;;;;;;;2.36;78.48;101157.13;5055547;28;20064;-77
2022/01/08 03:12:47;;;;;;;9.48;1.60;;;;;;;2.37;78.84;101155.34;5055993;28;20033;-78
2022/01/08 03:15:17;;;;;;;6.78;1.92;;;;;;;2.37;78.62;101160.59;5055731;28;20029;-78
2022/01/08 03:17:43;;;;;;;6.20;2.13;;;;;;;2.32;78.33;101160.84;5054253;28;20035;-79
2022/01/08 03:20:12;;;;;;;5.90;1.40;;;;;;;2.22;78.37;101160.44;5055495;28;20033;-79
2022/01/08 03:22:39;;;;;;;6.00;1.38;;;;;;;2.09;78.61;101165.47;5055568;28;20029;-79
2022/01/08 03:25:06;;;;;;;5.60;2.03;;;;;;;1.96;78.91;101158.25;5054085;28;20029;-78
2022/01/08 03:27:32;;;;;;;4.93;1.45;;;;;;;1.84;79.67;101155.34;5055687;28;20044;-79
2022/01/08 03:29:57;;;;;;;8.93;1.80;;;;;;;1.73;80.33;101152.38;5055376;28;20037;-78
2022/01/08 03:32:23;;;;;;;6.68;1.70;;;;;;;1.64;80.88;101156.28;5055463;28;20103;-80
2022/01/08 03:34:48;;;;;;;9.00;1.73;;;;;;;1.59;81.69;101153.03;5055077;28;20029;-78
2022/01/08 03:37:14;;;;;;;3.45;1.70;;;;;;;1.54;82.06;101152.44;5055123;28;20103;-79
2022/01/08 03:39:40;;;;;;;7.68;2.25;;;;;;;1.48;82.74;101153.56;5055015;28;20041;-79
2022/01/08 03:42:05;;;;;;;8.52;2.28;;;;;;;1.50;83.48;101141.22;5055567;28;20028;-79
2022/01/08 03:44:31;;;;;;;9.90;2.08;;;;;;;1.50;83.85;101161.34;5053804;28;20377;-81
2022/01/08 03:47:20;;;;;;;17.02;2.55;;;;;;;1.49;84.18;101157.03;5055384;28;20035;-78
2022/01/08 03:49:42;;;;;;;11.65;2.25;;;;;;;1.48;84.78;101153.56;5054773;28;20500;-79
2022/01/08 03:52:07;;;;;;;10.95;2.10;;;;;;;1.56;84.60;101154.03;5053931;28;20041;-79
2022/01/08 03:54:32;;;;;;;8.23;1.73;;;;;;;1.58;84.34;101149.59;5054639;28;20385;-81
2022/01/08 03:56:58;;;;;;;11.10;2.00;;;;;;;1.57;83.91;101147.88;5053487;28;20073;-79
2022/01/08 03:59:23;;;;;;;7.80;1.65;;;;;;;1.59;83.81;101148.63;5053386;28;20032;-80
2022/01/08 04:01:48;;;;;;;7.80;1.90;;;;;;;1.64;83.38;101152.81;5037505;28;20064;-79
2022/01/08 04:04:14;;;;;;;11.50;2.10;;;;;;;1.64;83.05;101156.28;5053290;28;20440;-79
2022/01/08 04:06:39;;;;;;;11.98;1.75;;;;;;;1.67;82.74;101155.28;5053094;28;20116;-80
2022/01/08 04:09:05;;;;;;;11.40;2.03;;;;;;;1.70;82.32;101156.00;5053643;28;20535;-80
2022/01/08 04:11:30;;;;;;;12.48;2.13;;;;;;;1.74;81.85;101154.91;5054463;28;20053;-80
2022/01/08 04:13:56;;;;;;;12.18;1.85;;;;;;;1.76;81.27;101147.84;5054249;28;20029;-81
2022/01/08 04:16:30;;;;;;;6.40;1.55;;;;;;;1.83;80.56;101155.41;5054287;28;20029;-80
2022/01/08 04:18:56;;;;;;;5.28;1.50;;;;;;;1.80;80.39;101161.66;5054802;28;20037;-80
2022/01/08 04:23:47;;;;;;;10.07;1.80;;;;;;;1.72;80.26;101161.19;5053115;28;20227;-81
2022/01/08 04:26:13;;;;;;;7.70;2.20;;;;;;;1.67;81.14;101163.16;5054560;28;20461;-80
2022/01/08 04:28:38;;;;;;;13.52;2.15;;;;;;;1.67;81.13;101164.03;5054244;28;20516;-80
2022/01/08 04:31:03;;;;;;;10.98;2.00;;;;;;;1.69;81.06;101170.03;5054482;28;20033;-80
2022/01/08 04:33:29;;;;;;;7.55;2.00;;;;;;;1.67;81.03;101174.53;5053011;28;20037;-79
2022/01/08 04:35:55;;;;;;;16.08;2.13;;;;;;;1.64;81.03;101177.28;5053963;28;20078;-81
2022/01/08 04:38:21;;;;;;;8.68;1.67;;;;;;;1.54;81.07;101186.53;5052914;28;20040;-81
2022/01/08 04:40:46;;;;;;;12.88;2.28;;;;;;;1.53;81.77;101188.28;5053943;28;20059;-80
2022/01/08 04:43:12;;;;;;;3.92;1.83;;;;;;;1.56;81.57;101192.53;5053083;28;20540;-79
2022/01/08 04:45:37;;;;;;;7.30;2.30;;;;;;;1.63;81.73;101190.47;5053927;28;20381;-82
2022/01/08 04:48:03;;;;;;;12.25;1.83;;;;;;;1.63;82.07;101190.47;5054418;28;20048;-79
2022/01/08 04:50:30;;;;;;;9.77;2.50;;;;;;;1.63;81.67;101191.31;5053683;28;20033;-79
2022/01/08 04:52:56;;;;;;;9.82;2.17;;;;;;;1.59;82.03;101187.97;5054291;28;20036;-79
2022/01/08 04:55:22;;;;;;;9.35;1.80;;;;;;;1.58;82.26;101177.56;5058497;28;20124;-79
2022/01/08 04:57:48;;;;;;;10.95;2.33;;;;;;;1.65;81.56;101178.97;5057088;28;20024;-79
2022/01/08 05:00:16;;;;;;;9.30;1.80;;;;;;;1.67;81.30;101177.16;5053380;28;20395;-80
2022/01/08 05:02:41;;;;;;;10.45;1.92;;;;;;;1.64;81.40;101177.28;5053914;28;20466;-81
2022/01/08 05:05:07;;;;;;;6.85;2.03;;;;;;;1.67;81.43;101171.03;5053955;28;20048;-79
2022/01/08 05:07:33;;;;;;;13.95;2.58;;;;;;;1.64;80.99;101174.66;5052613;28;20040;-79
2022/01/08 05:09:58;;;;;;;6.80;1.50;;;;;;;1.64;81.28;101174.66;5035914;28;20417;-79
2022/01/08 05:12:23;;;;;;;9.80;1.85;;;;;;;1.58;81.75;101178.44;5053398;28;20121;-79
2022/01/08 05:14:49;;;;;;;9.93;2.33;;;;;;;1.53;81.68;101176.94;5058853;28;20033;-79
2022/01/08 05:17:15;;;;;;;8.10;2.47;;;;;;;1.42;81.87;101174.84;5064902;28;20041;-78
2022/01/08 05:19:46;;;;;;;9.05;2.15;;;;;;;1.37;82.98;101169.81;5059144;28;20040;-79
2022/01/08 05:22:20;;;;;;;10.02;2.63;;;;;;;1.38;83.42;101187.22;5054059;28;20039;-80
2022/01/08 05:24:46;;;;;;;6.57;1.85;;;;;;;1.35;83.45;101192.59;5053809;28;20043;-80
2022/01/08 05:27:15;;;;;;;9.75;2.50;;;;;;;1.33;83.77;101198.84;5053624;28;20128;-79
2022/01/08 05:29:41;;;;;;;8.57;2.50;;;;;;;1.35;84.37;101190.00;5053512;28;20136;-79
2022/01/08 05:32:07;;;;;;;9.57;2.53;;;;;;;1.38;84.25;101196.88;5052973;28;20033;-79
2022/01/08 05:34:33;;;;;;;11.60;2.00;;;;;;;1.36;84.34;101196.94;5053041;28;20473;-79
2022/01/08 05:36:59;;;;;;;8.93;1.90;;;;;;;1.35;84.62;101210.97;5053457;28;20044;-80
2022/01/08 05:39:24;;;;;;;10.88;2.13;;;;;;;1.33;84.67;101209.31;5054032;28;20025;-79
2022/01/08 05:41:50;;;;;;;9.38;1.65;;;;;;;1.37;84.97;101208.28;5051883;28;20082;-80
2022/01/08 05:44:15;;;;;;;9.05;2.60;;;;;;;1.36;84.91;101206.59;5053150;28;20033;-78
2022/01/08 05:46:44;;;;;;;10.50;2.05;;;;;;;1.30;85.48;101201.59;5051662;28;20039;-79
2022/01/08 05:49:10;;;;;;;6.25;2.15;;;;;;;1.23;85.30;101208.91;5053538;28;20098;-79
2022/01/08 05:51:35;;;;;;;13.23;2.05;;;;;;;1.22;85.71;101202.81;5053734;28;20033;-79
2022/01/08 05:54:01;;;;;;;7.45;2.05;;;;;;;1.25;85.79;101204.44;5053226;28;20109;-78
2022/01/08 05:56:26;;;;;;;8.65;1.95;;;;;;;1.29;86.00;101199.94;5053226;28;20036;-79
2022/01/08 05:58:51;;;;;;;13.88;1.88;;;;;;;1.31;86.18;101205.94;5052185;28;20044;-79
2022/01/08 06:01:17;;;;;;;11.07;2.10;;;;;;;1.40;85.91;101197.63;5053715;28;20099;-78
2022/01/08 06:03:42;;;;;;;12.20;2.00;;;;;;;1.45;85.41;101185.19;5056678;28;20059;-79
2022/01/08 06:06:08;;;;;;;10.30;2.72;;;;;;;1.43;85.30;101184.38;5056849;28;20028;-79
2022/01/08 06:08:33;;;;;;;8.32;2.15;;;;;;;1.40;85.35;101179.28;5055422;28;20071;-79
2022/01/08 06:10:58;;;;;;;8.07;1.90;;;;;;;1.31;85.40;101172.69;5056756;28;20103;-78
2022/01/08 06:13:24;;;;;;;12.95;2.08;;;;;;;1.19;85.36;101175.88;5056778;28;20044;-80
2022/01/08 06:15:49;;;;;;;10.48;2.22;;;;;;;1.05;86.03;101177.38;5055648;28;20381;-81
2022/01/08 06:18:16;;;;;;;10.73;2.33;;;;;;;0.95;86.09;101178.69;5056842;28;20060;-79
2022/01/08 06:20:41;;;;;;;10.10;2.10;;;;;;;0.83;86.82;101168.78;5055439;28;20043;-78
2022/01/08 06:23:07;;;;;;;12.00;2.20;;;;;;;0.72;87.40;101166.63;5056359;28;20033;-79
2022/01/08 06:25:32;;;;;;;9.63;2.10;;;;;;;0.63;87.92;101167.03;5056566;28;20037;-79
2022/01/08 06:27:57;;;;;;;5.70;1.85;;;;;;;0.52;88.10;101163.13;5056201;28;20060;-80
2022/01/08 06:30:23;;;;;;;6.30;2.42;;;;;;;0.44;88.08;101169.59;5056786;28;20082;-79
2022/01/08 06:32:48;;;;;;;6.50;1.88;;;;;;;0.39;88.61;101167.19;5056559;28;20108;-78
2022/01/08 06:35:14;;;;;;;7.88;1.67;;;;;;;0.33;88.52;101163.06;5056587;28;20025;-80
2022/01/08 06:37:39;;;;;;;10.60;2.10;;;;;;;0.30;89.40;101170.16;5056113;28;20469;-79
2022/01/08 06:40:05;;;;;;;7.82;2.15;;;;;;;0.29;90.01;101158.00;5056535;28;20038;-81
2022/01/08 06:42:31;;;;;;;5.47;1.90;;;;;;;0.34;90.68;101163.91;5056375;28;20037;-80
2022/01/08 06:44:56;;;;;;;7.65;2.00;;;;;;;0.38;90.45;101159.41;5056151;28;20116;-81
2022/01/08 06:47:21;;;;;;;14.27;2.58;;;;;;;0.44;90.55;101157.34;5038726;28;20194;-79
2022/01/08 06:49:47;;;;;;;9.40;1.88;;;;;;;0.55;90.82;101156.88;5056126;28;20029;-79
2022/01/08 06:52:12;;;;;;;14.00;2.20;;;;;;;0.60;90.64;101149.69;5056101;28;20159;-79
2022/01/08 06:54:37;;;;;;;9.75;2.08;;;;;;;0.65;90.36;101149.47;5056205;28;20032;-79
2022/01/08 06:57:03;;;;;;;10.05;1.90;;;;;;;0.68;90.24;101149.34;5055960;28;20163;-79
2022/01/08 06:59:28;;;;;;;15.25;2.80;;;;;;;0.69;90.04;101151.91;5056506;28;20373;-78
2022/01/08 07:01:54;;;;;;;14.32;2.10;;;;;;;0.68;89.97;101142.31;5055931;28;20385;-79
2022/01/08 07:04:19;;;;;;;11.32;2.50;;;;;;;0.72;90.42;101145.69;5054453;28;20446;-79
2022/01/08 07:06:45;;;;;;;9.75;2.22;;;;;;;0.77;90.07;101146.31;5054567;28;20422;-80
2022/01/08 07:09:10;;;;;;;7.55;2.65;;;;;;;0.79;90.12;101144.50;5055623;28;20501;-78
2022/01/08 07:11:35;;;;;;;8.52;2.20;;;;;;;0.80;90.04;101140.94;5056140;28;20060;-79
2022/01/08 07:14:02;;;;;;;9.13;2.88;;;;;;;0.81;90.11;101129.53;5053930;28;20214;-79
2022/01/08 07:16:27;;;;;;;8.27;2.60;;;;;;;0.81;90.20;101134.78;5055681;28;20052;-79
2022/01/08 07:18:52;;;;;;;12.00;2.67;;;;;;;0.82;90.63;101131.25;5055435;28;20033;-80
2022/01/08 07:21:18;;;;;;;10.50;2.97;;;;;;;0.85;90.85;101138.09;5054153;28;20415;-79
2022/01/08 07:23:43;;;;;;;13.27;2.83;;;;;;;0.92;90.68;101136.91;5055727;28;20389;-78
2022/01/08 07:26:09;;;;;;;7.25;2.53;;;;;;;0.96;90.55;101129.78;5055812;28;20127;-80
2022/01/08 07:28:34;;;;;;;12.85;2.42;;;;;;;1.00;90.72;101129.56;5054477;28;20040;-79
2022/01/08 07:31:00;;;;;;;9.80;2.72;;;;;;;1.04;90.56;101130.25;5055631;28;20067;-82
2022/01/08 07:33:25;;;;;;;13.48;2.35;;;;;;;1.13;90.50;101131.63;5055934;28;20037;-78
2022/01/08 07:35:51;;;;;;;11.85;2.88;;;;;;;1.13;90.30;101123.75;5053653;28;20040;-77
2022/01/08 07:38:16;;;;;;;11.65;3.25;;;;;;;1.19;90.44;101120.84;5054536;28;20033;-78
2022/01/08 07:40:42;;;;;;;7.85;2.75;;;;;;;1.23;90.56;101119.78;5054048;28;20118;-78
2022/01/08 07:43:07;;;;;;;10.18;2.63;;;;;;;1.25;90.60;101117.09;5055030;28;20393;-79
2022/01/08 07:45:32;;;;;;;8.93;2.47;;;;;;;1.27;90.81;101113.47;5055014;28;20037;-77
2022/01/08 07:47:58;;;;;;;7.07;2.15;;;;;;;1.30;90.64;101123.81;5055461;28;20461;-77
2022/01/08 07:50:23;;;;;;;10.57;2.22;;;;;;;1.34;90.58;101122.72;5054038;28;20072;-77
2022/01/08 07:52:48;;;;;;;14.50;2.53;;;;;;;1.35;90.48;101120.97;5054871;28;20116;-76
2022/01/08 07:55:14;;;;;;;12.68;2.35;;;;;;;1.35;90.73;101116.56;5054404;28;20025;-75
2022/01/08 07:57:40;;;;;;;12.27;2.10;;;;;;;1.36;90.80;101115.66;5055301;28;20029;-76
2022/01/08 08:00:07;;;;;;;9.23;1.95;;;;;;;1.36;90.71;101106.94;5054666;28;20386;-81
2022/01/08 08:02:33;;;;;;;7.43;2.38;;;;;;;1.37;91.17;101103.38;5054639;28;20473;-78
2022/01/08 08:04:58;;;;;;;10.90;2.08;;;;;;;1.43;91.07;101094.38;5054281;28;20112;-80
2022/01/08 08:07:29;;;;;;;8.88;1.88;;;;;;;1.45;91.11;101101.25;5053334;28;20037;-80
2022/01/08 08:09:55;;;;;;;7.37;1.90;;;;;;;1.49;91.10;101087.06;5054412;28;20114;-79
2022/01/08 08:12:20;;;;;;;11.23;2.05;;;;;;;1.54;90.82;101087.69;5037082;28;20424;-78
2022/01/08 08:14:46;;;;;;;6.10;1.70;;;;;;;1.60;90.96;101086.56;5055110;28;20025;-79
2022/01/08 08:17:11;;;;;;;12.43;2.40;;;;;;;1.65;90.89;101087.16;5054510;28;20041;-79
2022/01/08 08:19:37;;;;;;;10.23;2.20;;;;;;;1.68;90.89;101084.38;5054833;28;20037;-79
2022/01/08 08:22:02;;;;;;;10.80;2.00;;;;;;;1.73;90.54;101081.53;5054128;28;20048;-80
2022/01/08 08:24:27;;;;;;;8.38;1.80;;;;;;;1.77;90.49;101083.09;5053122;28;20112;-81
2022/01/08 08:26:53;;;;;;;11.38;2.10;;;;;;;1.86;89.75;101079.16;5052844;28;20036;-80
2022/01/08 08:29:18;;;;;;;13.77;2.08;;;;;;;1.87;90.05;101076.47;5053860;28;20174;-79
2022/01/08 08:31:43;;;;;;;7.55;2.15;;;;;;;1.91;90.37;101066.63;5052540;28;20086;-78
2022/01/08 08:34:09;;;;;;;7.97;2.25;;;;;;;1.96;90.31;101069.03;5054396;28;20033;-79
2022/01/08 08:36:35;;;;;;;13.27;2.47;;;;;;;2.02;90.00;101064.31;5052751;28;20037;-77
2022/01/08 08:39:00;;;;;;;7.65;2.35;;;;;;;2.04;90.06;101053.75;5054027;28;20044;-78
2022/01/08 08:41:25;;;;;;;8.07;2.63;;;;;;;2.02;90.34;101051.22;5052687;28;20041;-78
2022/01/08 08:43:51;;;;;;;8.50;2.13;;;;;;;2.05;90.11;101047.59;5053298;28;20360;-80
2022/01/08 08:46:16;;;;;;;8.65;3.47;;;;;;;2.04;90.36;101051.13;5053199;28;20041;-80
2022/01/08 08:48:43;;;;;;;8.35;2.63;;;;;;;2.01;90.67;101046.88;5054216;28;20037;-79
2022/01/08 08:51:08;;;;;;;9.52;2.75;;;;;;;2.02;90.94;101045.97;5054365;28;20041;-78
2022/01/08 08:53:34;;;;;;;8.32;2.83;;;;;;;2.04;91.12;101053.75;5060402;28;20088;-79
2022/01/08 08:55:59;;;;;;;12.27;3.15;;;;;;;2.02;91.64;101040.72;5042090;28;20033;-80
2022/01/08 08:58:24;;;;;;;13.32;3.20;;;;;;;2.05;91.60;101051.03;5052479;28;20029;-78
2022/01/08 09:00:50;;;;;;;12.00;4.00;;;;;;;2.08;91.88;101047.44;5053694;28;20119;-79
2022/01/08 09:03:17;;;;;;;12.00;3.88;;;;;;;2.14;91.67;101051.50;5051965;28;20370;-79
2022/01/08 09:05:42;;;;;;;15.50;3.95;;;;;;;2.16;91.62;101026.84;5053568;28;20041;-77
2022/01/08 09:08:08;;;;;;;9.13;5.07;;;;;;;2.16;92.06;101020.78;5053591;28;20032;-77
2022/01/08 09:10:33;;;;;;;15.05;5.50;;;;;;;2.15;92.25;101014.69;5053948;28;20462;-76
2022/01/08 09:12:59;;;;;;;17.38;5.65;;;;;;;2.17;92.62;101015.44;5052331;28;20112;-81
2022/01/08 09:15:26;;;;;;;14.40;6.15;;;;;;;2.20;92.60;101001.31;5053734;28;20446;-75
2022/01/08 09:17:56;;;;;;;13.40;6.03;;;;;;;2.24;92.13;100998.44;5053243;28;20037;-77
2022/01/08 09:20:22;;;;;;;18.58;6.72;;;;;;;2.26;92.08;100990.47;5052285;28;20074;-78
2022/01/08 09:22:47;;;;;;;18.75;6.88;;;;;;;2.26;91.72;100987.84;5053358;28;20417;-78
2022/01/08 09:25:13;;;;;;;16.85;6.50;;;;;;;2.28;91.49;100980.72;5053171;28;20129;-76
2022/01/08 09:27:40;;;;;;;19.13;7.70;;;;;;;2.28;91.43;100985.97;5053497;28;20039;-76
2022/01/08 09:30:06;;;;;;;14.93;6.70;;;;;;;2.25;91.83;100984.34;5052905;28;20124;-77
2022/01/08 09:32:33;;;;;;;23.08;6.75;;;;;;;2.27;91.77;100973.81;5053230;28;20072;-77
2022/01/08 09:34:58;;;;;;;19.30;7.55;;;;;;;2.27;91.79;100965.91;5053237;28;20116;-77
2022/01/08 09:37:24;;;;;;;17.95;6.93;;;;;;;2.28;91.85;100965.84;5053308;28;20135;-78
2022/01/08 09:39:50;;;;;;;13.93;7.10;;;;;;;2.28;91.85;100963.22;5052882;28;20048;-77
2022/01/08 09:42:16;;;;;;;11.65;7.15;;;;;;;2.29;91.91;100953.53;5053169;28;20024;-77
2022/01/08 09:44:44;;;;;;;16.42;7.47;;;;;;;2.30;91.85;100952.63;5052953;28;20033;-78
2022/01/08 09:47:13;;;;;;;19.10;7.75;;;;;;;2.32;92.04;100955.16;5053044;28;20033;-78
2022/01/08 09:49:40;;;;;;;13.63;6.97;;;;;;;2.37;92.08;100945.25;5053196;28;20100;-78
2022/01/08 09:52:07;;;;;;;19.10;7.20;;;;;;;2.38;91.48;100942.53;5053073;28;20036;-78
2022/01/08 09:54:33;;;;;;;11.73;6.50;;;;;;;2.44;91.36;100942.19;5052959;28;20103;-76
2022/01/08 09:56:58;;;;;;;13.30;6.90;;;;;;;2.43;90.95;100929.16;5052994;28;20046;-78
2022/01/08 09:59:25;;;;;;;13.32;7.00;;;;;;;2.45;90.61;100919.44;5052879;28;20418;-79
2022/01/08 10:01:59;;;;;;;15.63;6.30;;;;;;;2.52;90.67;100914.66;5053020;28;20025;-78
2022/01/08 10:04:30;;;;;;;14.52;6.95;;;;;;;2.52;89.97;100909.41;5054028;28;20047;-78
2022/01/08 10:07:22;;;;;;;13.57;5.43;;;;;;;2.56;89.10;100908.31;5053837;28;20031;-75
2022/01/08 10:10:10;;;;;;;8.68;5.35;;;;;;;2.62;88.94;100900.91;5053470;28;20075;-76
2022/01/08 10:12:41;;;;;;;11.07;5.70;;;;;;;2.67;89.09;100890.16;5053069;28;20025;-74
2022/01/08 10:17:52;;;;;;;10.98;5.72;;;;;;;2.74;88.70;100867.84;5052830;28;20136;-77
2022/01/08 10:20:33;;;;;;;7.28;4.75;;;;;;;2.79;88.37;100859.69;5053268;28;20037;-73
2022/01/08 10:23:22;;;;;;;8.25;4.60;;;;;;;2.90;87.42;100849.44;5053028;28;20115;-77
2022/01/08 10:25:56;;;;;;;8.18;4.60;;;;;;;2.92;86.91;100836.19;5052895;28;20033;-76
2022/01/08 10:28:39;;;;;;;7.28;4.22;;;;;;;2.96;86.74;100832.47;5052717;28;20473;-76
2022/01/08 10:31:18;;;;;;;9.23;4.20;;;;;;;2.95;85.85;100828.97;5052949;28;20365;-79
2022/01/08 10:33:50;;;;;;;11.45;4.35;;;;;;;3.02;85.44;100826.00;5053199;28;20487;-78
2022/01/08 10:36:26;;;;;;;11.07;3.67;;;;;;;3.09;84.90;100822.91;5050907;28;20031;-78
2022/01/08 10:38:54;;;;;;;13.40;3.33;;;;;;;3.17;83.49;100798.78;5052954;28;20029;-78
2022/01/08 10:41:21;;;;;;;8.20;3.53;;;;;;;3.28;82.84;100784.97;5051528;28;20037;-80
2022/01/08 10:43:46;;;;;;;6.35;3.13;;;;;;;3.42;82.78;100777.09;5052572;28;20029;-77
2022/01/08 10:46:19;;;;;;;7.35;3.15;;;;;;;3.51;82.15;100776.53;5052190;28;20143;-79
2022/01/08 10:48:50;;;;;;;9.45;2.63;;;;;;;3.55;80.37;100771.91;5055204;28;20037;-78
2022/01/08 10:51:26;;;;;;;7.45;2.80;;;;;;;3.58;79.74;100765.63;5055299;28;20456;-78
2022/01/08 10:54:13;;;;;;;8.65;2.78;;;;;;;3.60;80.60;100761.09;5055798;28;20106;-78
2022/01/08 10:56:45;;;;;;;9.05;2.85;;;;;;;3.56;79.56;100742.03;5056150;28;20033;-80
2022/01/08 10:59:19;;;;;;;8.23;2.58;;;;;;;3.64;79.54;100737.16;5055919;28;20029;-79
2022/01/08 11:02:07;;;;;;;10.82;2.38;;;;;;;3.74;79.70;100724.25;5038425;28;20338;-79
2022/01/08 11:04:37;;;;;;;7.88;2.40;;;;;;;3.79;80.40;100711.66;5049508;28;20037;-80
2022/01/08 11:07:09;;;;;;;8.23;2.50;;;;;;;3.84;79.32;100709.56;5056055;28;20040;-79
2022/01/08 11:09:36;;;;;;;7.80;2.72;;;;;;;3.87;80.52;100703.25;5055297;28;20021;-76
2022/01/08 11:12:04;;;;;;;7.53;2.60;;;;;;;3.83;80.18;100697.31;5055605;28;20052;-77
2022/01/08 11:17:31;;;;;;;4.00;1.70;;;;;;;3.82;80.36;100681.63;5055752;28;20505;-78
2022/01/08 11:20:05;;;;;;;8.30;2.60;;;;;;;3.83;80.74;100685.97;5055713;28;20021;-82
2022/01/08 11:22:32;;;;;;;11.65;2.85;;;;;;;3.85;80.72;100663.00;5054874;28;20040;-81
2022/01/08 11:25:21;;;;;;;8.57;2.67;;;;;;;3.81;80.81;100672.91;5055299;28;20033;-81
2022/01/08 11:28:05;;;;;;;9.13;2.75;;;;;;;3.78;81.08;100654.69;5055913;28;20083;-80
2022/01/08 11:30:58;;;;;;;7.90;2.92;;;;;;;3.74;81.59;100644.44;5055192;28;20033;-79
2022/01/08 11:33:33;;;;;;;8.13;2.75;;;;;;;3.69;81.68;100636.88;5049787;28;20123;-79
2022/01/08 11:35:59;;;;;;;8.60;3.83;;;;;;;3.61;82.97;100644.41;5055932;28;20055;-80
2022/01/08 11:38:27;;;;;;;7.78;3.50;;;;;;;3.51;83.12;100636.25;5054426;28;20120;-83
2022/01/08 11:40:55;;;;;;;8.88;3.10;;;;;;;3.45;83.75;100613.81;5055544;28;20033;-80
2022/01/08 11:43:23;;;;;;;7.55;3.28;;;;;;;3.45;84.74;100610.31;5055195;28;20495;-81
2022/01/08 11:45:56;;;;;;;7.25;3.03;;;;;;;3.45;84.49;100578.75;5055742;28;20025;-78
2022/01/08 11:48:28;;;;;;;12.75;3.65;;;;;;;3.49;84.29;100569.72;5056818;28;20120;-81
2022/01/08 11:50:57;;;;;;;9.02;3.05;;;;;;;3.48;84.79;100571.53;5059651;28;20102;-80
2022/01/08 11:53:25;;;;;;;9.88;2.92;;;;;;;3.56;85.92;100554.41;5055416;28;20473;-79